createdAt,value
2023-10-25T00:01:21.192Z,96347.80
2023-10-25T00:03:48.567Z,96353.00
2023-10-25T00:06:15.921Z,96348.00
2023-10-25T00:08:50.378Z,96348.60
2023-10-25T00:11:24.493Z,96349.00
2023-10-25T00:13:51.248Z,96352.80
2023-10-25T00:16:18.167Z,96352.60
2023-10-25T00:18:48.330Z,96353.40
2023-10-25T00:21:17.372Z,96354.80
2023-10-25T00:23:47.585Z,96361.80
2023-10-25T00:26:18.567Z,96361.20
2023-10-25T00:28:48.289Z,96365.60
2023-10-25T00:31:15.332Z,96365.20
2023-10-25T00:33:45.215Z,96360.60
2023-10-25T00:36:12.474Z,96367.00
2023-10-25T00:38:44.615Z,96366.40
2023-10-25T00:41:11.366Z,96367.00
2023-10-25T00:43:38.427Z,96364.40
2023-10-25T00:46:13.056Z,96367.00
2023-10-25T00:48:46.015Z,96362.40
2023-10-25T00:51:22.845Z,96365.00
2023-10-25T00:54:04.850Z,96359.60
2023-10-25T00:56:36.131Z,96355.20
2023-10-25T00:59:02.879Z,96352.80
2023-10-25T01:01:36.616Z,96351.20
2023-10-25T01:04:06.707Z,96354.20
2023-10-25T01:06:34.066Z,96353.40
2023-10-25T01:09:11.271Z,96352.20
2023-10-25T01:11:38.863Z,96355.80
2023-10-25T01:14:06.392Z,96356.20
2023-10-25T01:16:33.769Z,96352.20
2023-10-25T01:19:06.352Z,96355.20
2023-10-25T01:21:36.240Z,96355.00
2023-10-25T01:24:06.480Z,96359.40
2023-10-25T01:26:33.570Z,96358.20
2023-10-25T01:29:06.966Z,96356.20
2023-10-25T01:31:33.714Z,96351.20
2023-10-25T01:34:06.684Z,96345.80
2023-10-25T01:36:33.880Z,96353.60
2023-10-25T01:39:01.020Z,96351.60
2023-10-25T01:41:27.992Z,96352.40
2023-10-25T01:43:57.085Z,96344.00
2023-10-25T01:46:40.331Z,96357.00
2023-10-25T01:49:10.615Z,96355.20
2023-10-25T01:51:38.020Z,96359.00
2023-10-25T01:54:15.827Z,96362.80
2023-10-25T01:56:59.952Z,96359.40
2023-10-25T01:59:27.015Z,96364.20
2023-10-25T02:01:58.909Z,96361.00
2023-10-25T02:04:33.364Z,96362.20
2023-10-25T02:07:06.631Z,96363.20
2023-10-25T02:09:33.650Z,96369.80
2023-10-25T02:12:05.997Z,96369.40
2023-10-25T02:14:37.644Z,96369.40
2023-10-25T02:17:12.055Z,96374.60
2023-10-25T02:19:44.984Z,96370.20
2023-10-25T02:22:13.348Z,96378.80
2023-10-25T02:24:48.456Z,96378.40
2023-10-25T02:27:40.998Z,96378.80
2023-10-25T02:30:10.788Z,96377.20
2023-10-25T02:32:40.599Z,96382.60
2023-10-25T02:35:13.925Z,96385.40
2023-10-25T02:37:49.717Z,96390.00
2023-10-25T02:40:28.603Z,96391.60
2023-10-25T02:42:58.030Z,96393.20
2023-10-25T02:45:28.455Z,96395.40
2023-10-25T02:47:58.239Z,96398.40
2023-10-25T02:50:40.332Z,96398.80
2023-10-25T02:53:27.701Z,96406.20
2023-10-25T02:56:04.368Z,96407.80
2023-10-25T02:58:41.137Z,96406.40
2023-10-25T03:01:17.116Z,96417.00
2023-10-25T03:03:44.569Z,96417.00
2023-10-25T03:06:14.902Z,96419.20
2023-10-25T03:08:45.237Z,96421.80
2023-10-25T03:11:14.946Z,96417.60
2023-10-25T03:13:45.096Z,96420.20
2023-10-25T03:16:14.761Z,96421.80
2023-10-25T03:18:59.792Z,96422.00
2023-10-25T03:21:29.829Z,96427.20
2023-10-25T03:24:02.092Z,96428.20
2023-10-25T03:26:28.994Z,96433.80
2023-10-25T03:29:27.638Z,96432.80
2023-10-25T03:32:02.193Z,96432.00
2023-10-25T03:34:31.376Z,96434.40
2023-10-25T03:37:08.249Z,96436.60
2023-10-25T03:39:45.787Z,96439.20
2023-10-25T03:42:17.153Z,96445.40
2023-10-25T03:44:46.867Z,96446.80
2023-10-25T03:47:41.948Z,96445.00
2023-10-25T03:50:22.218Z,96445.60
2023-10-25T03:52:49.115Z,96449.00
2023-10-25T03:55:21.201Z,96447.00
2023-10-25T03:58:02.602Z,96446.80
2023-10-25T04:01:11.924Z,96450.20
2023-10-25T04:03:39.654Z,96446.20
2023-10-25T04:06:08.554Z,96447.40
2023-10-25T04:08:36.104Z,96443.00
2023-10-25T04:11:05.817Z,96446.40
2023-10-25T04:13:36.069Z,96442.80
2023-10-25T04:16:07.372Z,96440.40
2023-10-25T04:18:40.780Z,96430.80
2023-10-25T04:21:16.777Z,96439.20
2023-10-25T04:23:46.345Z,96437.40
2023-10-25T04:26:15.405Z,96439.20
2023-10-25T04:28:52.087Z,96436.80
2023-10-25T04:31:27.337Z,96430.80
2023-10-25T04:34:00.679Z,96426.40
2023-10-25T04:36:35.136Z,96427.20
2023-10-25T04:39:08.432Z,96428.80
2023-10-25T04:41:37.811Z,96424.20
2023-10-25T04:44:08.251Z,96417.60
2023-10-25T04:46:35.480Z,96417.60
2023-10-25T04:49:14.099Z,96415.40
2023-10-25T04:51:47.586Z,96397.80
2023-10-25T04:54:14.798Z,96384.40
2023-10-25T04:56:41.964Z,96380.40
2023-10-25T04:59:19.367Z,96380.60
2023-10-25T05:01:46.268Z,96376.40
2023-10-25T05:04:13.352Z,96368.60
2023-10-25T05:06:42.985Z,96371.20
2023-10-25T05:09:12.767Z,96378.40
2023-10-25T05:11:43.753Z,96379.00
2023-10-25T05:14:31.307Z,96380.00
2023-10-25T05:17:08.345Z,96384.20
2023-10-25T05:19:44.068Z,96397.60
2023-10-25T05:22:18.238Z,96399.00
2023-10-25T05:24:58.436Z,96400.40
2023-10-25T05:27:41.532Z,96410.80
2023-10-25T05:30:35.975Z,96414.20
2023-10-25T05:33:11.478Z,96412.80
2023-10-25T05:35:42.262Z,96418.80
2023-10-25T05:38:17.317Z,96423.80
2023-10-25T05:41:09.588Z,96426.60
2023-10-25T05:43:50.675Z,96430.20
2023-10-25T05:46:25.642Z,96435.60
2023-10-25T05:49:16.537Z,96442.00
2023-10-25T05:51:47.451Z,96445.60
2023-10-25T05:54:21.234Z,96453.80
2023-10-25T05:56:59.772Z,96455.80
2023-10-25T05:59:32.314Z,96459.00
2023-10-25T06:02:23.323Z,96461.60
2023-10-25T06:04:55.540Z,96467.00
2023-10-25T06:07:37.095Z,96459.40
2023-10-25T06:10:28.093Z,96465.00
2023-10-25T06:13:00.574Z,96474.40
2023-10-25T06:15:41.375Z,96480.20
2023-10-25T06:18:11.651Z,96479.60
2023-10-25T06:20:38.899Z,96485.20
2023-10-25T06:23:06.560Z,96487.40
2023-10-25T06:25:44.643Z,96483.00
2023-10-25T06:28:11.501Z,96489.40
2023-10-25T06:30:38.569Z,96493.00
2023-10-25T06:33:06.069Z,96492.20
2023-10-25T06:35:33.368Z,96488.80
2023-10-25T06:38:09.758Z,96489.60
2023-10-25T06:40:37.422Z,96489.40
2023-10-25T06:43:25.634Z,96481.20
2023-10-25T06:46:34.563Z,96478.80
2023-10-25T06:49:04.673Z,96474.60
2023-10-25T06:51:46.228Z,96471.80
2023-10-25T06:54:18.618Z,96464.80
2023-10-25T06:57:01.812Z,96468.00
2023-10-25T06:59:32.458Z,96463.20
2023-10-25T07:02:38.299Z,96461.40
2023-10-25T07:05:14.199Z,96460.80
2023-10-25T07:07:48.297Z,96461.00
2023-10-25T07:10:22.935Z,96466.00
2023-10-25T07:13:05.824Z,96465.80
2023-10-25T07:15:37.806Z,96466.00
2023-10-25T07:18:18.359Z,96462.00
2023-10-25T07:20:57.402Z,96458.20
2023-10-25T07:23:24.450Z,96466.80
2023-10-25T07:25:51.634Z,96461.60
2023-10-25T07:28:18.856Z,96455.40
2023-10-25T07:30:46.116Z,96453.80
2023-10-25T07:33:14.483Z,96453.80
2023-10-25T07:35:47.385Z,96461.40
2023-10-25T07:38:27.189Z,96455.60
2023-10-25T07:40:54.185Z,96456.20
2023-10-25T07:43:26.374Z,96458.40
2023-10-25T07:45:56.854Z,96460.80
2023-10-25T07:48:24.210Z,96460.80
2023-10-25T07:50:54.460Z,96466.40
2023-10-25T07:53:21.213Z,96464.40
2023-10-25T07:58:26.506Z,96471.60
2023-10-25T08:01:00.512Z,96478.60
2023-10-25T08:03:38.046Z,96473.80
2023-10-25T08:06:08.391Z,96471.60
2023-10-25T08:08:35.659Z,96465.20
2023-10-25T08:11:04.873Z,96461.20
2023-10-25T08:13:34.444Z,96462.60
2023-10-25T08:16:05.593Z,96471.60
2023-10-25T08:18:41.922Z,96473.40
2023-10-25T08:21:37.165Z,96474.80
2023-10-25T08:24:19.137Z,96475.00
2023-10-25T08:26:48.364Z,96475.40
2023-10-25T08:29:15.591Z,96472.00
2023-10-25T08:31:51.262Z,96469.20
2023-10-25T08:34:18.577Z,96468.40
2023-10-25T08:36:45.520Z,96463.40
2023-10-25T08:39:12.745Z,96460.20
2023-10-25T08:41:40.737Z,96460.40
2023-10-25T08:44:09.427Z,96457.00
2023-10-25T08:46:37.561Z,96464.00
2023-10-25T08:49:05.069Z,96469.20
2023-10-25T08:51:36.650Z,96470.80
2023-10-25T08:54:04.717Z,96470.20
2023-10-25T08:56:31.602Z,96471.00
2023-10-25T08:59:02.739Z,96468.80
2023-10-25T09:01:31.474Z,96461.80
2023-10-25T09:04:08.122Z,96459.00
2023-10-25T09:06:37.511Z,96456.00
2023-10-25T09:09:07.953Z,96452.60
2023-10-25T09:11:45.046Z,96458.40
2023-10-25T09:14:15.006Z,96457.20
2023-10-25T09:16:44.126Z,96450.60
2023-10-25T09:19:20.848Z,96445.60
2023-10-25T09:21:56.884Z,96445.80
2023-10-25T09:24:23.908Z,96444.40
2023-10-25T09:26:52.543Z,96434.20
2023-10-25T09:29:29.109Z,96435.20
2023-10-25T09:32:07.487Z,96435.60
2023-10-25T09:34:36.495Z,96434.40
2023-10-25T09:37:10.614Z,96427.00
2023-10-25T09:39:38.337Z,96423.60
2023-10-25T09:42:26.563Z,96419.80
2023-10-25T10:00:49.690Z,96400.60
2023-10-25T16:29:47.725Z,95895.60
2023-10-25T16:39:55.934Z,95898.60
2023-10-25T16:49:16.373Z,95886.80
2023-10-25T17:01:10.763Z,95865.20
2023-10-25T17:04:00.860Z,95871.80
